Time;durP1;ratioP1;P1;durP2;ratioP2;P2;SDS_P1;SDS_P2;PMS_P1;PMS_P2;Temp;Humidity;BMP_temperature;BMP_pressure;BME280_temperature;BME280_humidity;BME280_pressure;Samples;Min_cycle;Max_cycle;Signal;HPM_P1;HPM_P2
2022/01/09 00:00:21;;;;;;;35.42;21.00;;;1.30;99.90;;;;;;5052997;28;20029;-74
2022/01/09 00:02:46;;;;;;;31.00;19.77;;;1.30;99.90;;;;;;5052845;28;20108;-74
2022/01/09 00:05:13;;;;;;;35.55;20.27;;;1.30;99.90;;;;;;5052973;28;20112;-74
2022/01/09 00:07:39;;;;;;;33.03;18.95;;;1.30;99.90;;;;;;5052979;28;20052;-74
2022/01/09 00:10:06;;;;;;;36.42;19.48;;;1.30;99.90;;;;;;5052830;28;20021;-74
2022/01/09 00:12:32;;;;;;;29.63;19.77;;;1.30;99.90;;;;;;5052658;28;20047;-74
2022/01/09 00:14:58;;;;;;;32.40;19.23;;;1.40;99.90;;;;;;5052888;28;20476;-74
2022/01/09 00:17:23;;;;;;;36.35;19.13;;;1.40;99.90;;;;;;5053545;28;20480;-74
2022/01/09 00:19:49;;;;;;;35.75;20.25;;;1.40;99.90;;;;;;5057043;28;20480;-74
2022/01/09 00:22:18;;;;;;;36.75;19.13;;;1.30;99.90;;;;;;5056716;28;20044;-74
2022/01/09 00:24:44;;;;;;;32.67;20.92;;;1.40;99.90;;;;;;5042158;23;20128;-74
2022/01/09 00:27:10;;;;;;;42.50;22.20;;;1.40;99.90;;;;;;5017369;28;20097;-74
2022/01/09 00:29:35;;;;;;;36.75;21.17;;;1.40;99.90;;;;;;5017010;28;20037;-74
2022/01/09 00:32:01;;;;;;;36.13;20.95;;;1.40;99.90;;;;;;5017619;28;20030;-74
2022/01/09 00:34:26;;;;;;;37.17;21.63;;;1.40;99.90;;;;;;5017094;28;20084;-74
2022/01/09 00:36:52;;;;;;;35.63;21.48;;;1.40;99.90;;;;;;5017005;28;20084;-74
2022/01/09 00:39:17;;;;;;;36.60;20.65;;;1.40;99.90;;;;;;5015630;28;20029;-74
2022/01/09 00:41:43;;;;;;;32.78;20.13;;;1.40;99.90;;;;;;5015575;28;20026;-74
2022/01/09 00:44:09;;;;;;;40.58;20.73;;;1.50;99.90;;;;;;5016822;28;20121;-74
2022/01/09 00:46:35;;;;;;;37.83;22.02;;;1.50;99.90;;;;;;5015576;28;20026;-74
2022/01/09 00:49:02;;;;;;;37.35;21.15;;;1.50;99.90;;;;;;5016702;28;20054;-74
2022/01/09 00:51:27;;;;;;;38.92;21.85;;;1.50;99.90;;;;;;5015438;28;20026;-75
2022/01/09 00:53:53;;;;;;;38.55;21.55;;;1.50;99.90;;;;;;5016556;28;20018;-74
2022/01/09 00:56:18;;;;;;;37.30;21.67;;;1.50;99.90;;;;;;5015576;28;20033;-74
2022/01/09 00:58:44;;;;;;;35.80;20.75;;;1.50;99.90;;;;;;5016577;28;20477;-74
2022/01/09 01:01:09;;;;;;;36.20;20.80;;;1.60;99.90;;;;;;5016533;28;20425;-74
2022/01/09 01:03:35;;;;;;;38.42;21.98;;;1.50;99.90;;;;;;5016403;28;20021;-74
2022/01/09 01:06:01;;;;;;;34.85;21.40;;;1.50;99.90;;;;;;5016722;28;20029;-74
2022/01/09 01:08:26;;;;;;;41.42;22.92;;;1.50;99.90;;;;;;5016372;28;20109;-74
2022/01/09 01:10:52;;;;;;;39.80;23.52;;;1.40;99.90;;;;;;5016439;28;20496;-74
2022/01/09 01:13:17;;;;;;;39.78;21.63;;;1.40;99.90;;;;;;5016192;28;20108;-74
2022/01/09 01:15:43;;;;;;;39.05;21.75;;;1.40;99.90;;;;;;5016528;28;20064;-74
2022/01/09 01:18:09;;;;;;;35.30;21.48;;;1.40;99.90;;;;;;5016228;28;20025;-74
2022/01/09 01:20:34;;;;;;;36.47;21.15;;;1.40;99.90;;;;;;5016156;28;20026;-74
2022/01/09 01:23:00;;;;;;;40.85;23.02;;;1.40;99.90;;;;;;5016142;28;20065;-74
2022/01/09 01:25:26;;;;;;;37.20;20.80;;;1.30;99.90;;;;;;5016390;28;20022;-74
2022/01/09 01:27:52;;;;;;;38.65;21.73;;;1.30;99.90;;;;;;5015206;28;20034;-74
2022/01/09 01:30:18;;;;;;;36.42;23.33;;;1.30;99.90;;;;;;5015847;28;20041;-74
2022/01/09 01:32:44;;;;;;;36.83;22.27;;;1.30;99.90;;;;;;5015901;28;20108;-74
2022/01/09 01:35:12;;;;;;;33.17;20.25;;;1.30;99.90;;;;;;5016374;28;20032;-74
2022/01/09 01:37:41;;;;;;;35.67;19.60;;;1.30;99.90;;;;;;5015860;28;20026;-74
2022/01/09 01:40:09;;;;;;;41.58;20.67;;;1.20;99.90;;;;;;5015808;28;20030;-74
2022/01/09 01:42:34;;;;;;;40.00;20.45;;;1.20;99.90;;;;;;5015752;28;20026;-74
2022/01/09 01:45:00;;;;;;;39.67;20.08;;;1.20;99.90;;;;;;5015663;28;20083;-74
2022/01/09 01:47:26;;;;;;;37.40;20.48;;;1.20;99.90;;;;;;5015719;28;20026;-74
2022/01/09 01:49:52;;;;;;;43.28;21.48;;;1.20;99.90;;;;;;5015588;28;20034;-74
2022/01/09 01:52:24;;;;;;;34.60;21.05;;;1.20;99.90;;;;;;5016167;28;20041;-74
2022/01/09 01:54:50;;;;;;;39.70;21.83;;;1.30;99.90;;;;;;5014344;28;20025;-74
2022/01/09 01:57:15;;;;;;;38.30;22.42;;;1.30;99.90;;;;;;5015729;28;20382;-74
2022/01/09 01:59:41;;;;;;;40.20;19.20;;;1.30;99.90;;;;;;5015438;28;20034;-74
2022/01/09 02:02:07;;;;;;;39.58;21.40;;;1.40;99.90;;;;;;5015416;28;20600;-75
2022/01/09 02:04:32;;;;;;;39.30;19.55;;;1.40;99.90;;;;;;5014463;28;20080;-74
2022/01/09 02:06:59;;;;;;;38.72;20.23;;;1.40;99.90;;;;;;5015176;28;20034;-74
2022/01/09 02:09:25;;;;;;;41.03;20.52;;;1.40;99.90;;;;;;5015132;28;20477;-74
2022/01/09 02:11:51;;;;;;;41.70;21.52;;;1.50;99.90;;;;;;5015731;28;20053;-74
2022/01/09 02:14:16;;;;;;;37.85;20.63;;;1.50;99.90;;;;;;5015085;28;20018;-74
2022/01/09 02:16:43;;;;;;;40.00;21.13;;;1.50;99.90;;;;;;5015415;28;20359;-74
2022/01/09 02:19:14;;;;;;;38.80;20.15;;;1.50;99.90;;;;;;5015041;28;20053;-74
2022/01/09 02:21:47;;;;;;;39.03;22.17;;;1.50;99.90;;;;;;5013785;28;20036;-74
2022/01/09 02:24:15;;;;;;;40.17;19.65;;;1.60;99.90;;;;;;5014969;28;20034;-75
2022/01/09 02:26:41;;;;;;;41.85;21.40;;;1.60;99.90;;;;;;5014956;28;20057;-74
2022/01/09 02:29:07;;;;;;;36.22;21.25;;;1.60;99.90;;;;;;5014817;28;20164;-75
2022/01/09 02:31:34;;;;;;;34.05;18.75;;;1.60;99.90;;;;;;5014843;28;20070;-74
2022/01/09 02:34:00;;;;;;;42.70;20.95;;;1.60;99.90;;;;;;5013488;28;20486;-74
2022/01/09 02:36:26;;;;;;;48.22;20.95;;;1.70;99.90;;;;;;5014700;28;20030;-74
2022/01/09 02:38:52;;;;;;;37.95;20.33;;;1.70;99.90;;;;;;5012639;28;20065;-74
2022/01/09 02:41:18;;;;;;;39.90;19.25;;;1.70;99.90;;;;;;5013958;28;20022;-74
2022/01/09 02:43:44;;;;;;;39.25;20.38;;;1.70;99.90;;;;;;5014792;28;20436;-74
2022/01/09 02:46:15;;;;;;;33.40;20.27;;;1.70;99.90;;;;;;5014553;28;20596;-74
2022/01/09 02:48:41;;;;;;;41.00;22.05;;;1.80;99.90;;;;;;5013311;28;20029;-74
2022/01/09 02:51:14;;;;;;;40.92;21.52;;;1.80;99.90;;;;;;5013964;28;20034;-74
2022/01/09 02:53:44;;;;;;;37.83;20.98;;;1.80;99.90;;;;;;5012384;28;20030;-74
2022/01/09 02:56:10;;;;;;;32.25;20.60;;;1.70;99.90;;;;;;5013229;28;20504;-74
2022/01/09 02:58:37;;;;;;;33.78;20.42;;;1.80;99.90;;;;;;5005451;28;20033;-74
2022/01/09 03:01:08;;;;;;;39.53;20.83;;;1.80;99.90;;;;;;4994708;28;20022;-74
2022/01/09 03:03:34;;;;;;;43.05;21.08;;;1.80;99.90;;;;;;5003345;28;20040;-74
2022/01/09 03:05:59;;;;;;;46.53;23.08;;;1.70;99.90;;;;;;5014371;28;20026;-75
2022/01/09 03:08:25;;;;;;;38.08;20.35;;;1.80;99.90;;;;;;5009737;28;20394;-74
2022/01/09 03:10:51;;;;;;;40.15;22.42;;;1.80;99.90;;;;;;5014376;28;20026;-74
2022/01/09 03:13:17;;;;;;;42.33;21.85;;;1.80;99.90;;;;;;5014066;28;20026;-74
2022/01/09 03:15:42;;;;;;;38.65;20.30;;;1.80;99.90;;;;;;5012813;28;20032;-75
2022/01/09 03:18:08;;;;;;;35.58;19.90;;;1.80;99.90;;;;;;5008372;28;20037;-74
2022/01/09 03:20:34;;;;;;;39.20;21.85;;;1.80;99.90;;;;;;4994338;28;20026;-74
2022/01/09 03:22:59;;;;;;;35.65;20.75;;;1.80;99.90;;;;;;4994404;28;20027;-74
2022/01/09 03:25:26;;;;;;;40.80;19.92;;;1.80;99.90;;;;;;5010464;28;20520;-75
2022/01/09 03:27:53;;;;;;;37.35;21.67;;;1.80;99.90;;;;;;5008054;28;20034;-74
2022/01/09 03:30:21;;;;;;;37.28;20.33;;;1.90;99.90;;;;;;4994387;28;20030;-75
2022/01/09 03:32:48;;;;;;;34.90;20.17;;;1.90;99.90;;;;;;5005204;28;20026;-74
2022/01/09 03:35:16;;;;;;;42.72;21.42;;;1.90;99.90;;;;;;5014253;28;20030;-74
2022/01/09 03:37:43;;;;;;;35.75;21.23;;;1.90;99.90;;;;;;5013670;28;20021;-74
2022/01/09 03:40:15;;;;;;;33.13;20.40;;;1.90;99.90;;;;;;5013521;28;20026;-75
2022/01/09 03:42:40;;;;;;;39.10;19.95;;;1.90;99.90;;;;;;5007398;28;20497;-74
2022/01/09 03:45:08;;;;;;;42.60;21.38;;;1.90;99.90;;;;;;5002425;28;20089;-74
2022/01/09 03:47:35;;;;;;;33.63;18.88;;;1.90;99.90;;;;;;4993938;28;20018;-75
2022/01/09 03:50:03;;;;;;;37.03;20.80;;;1.90;99.90;;;;;;4993888;28;20108;-74
2022/01/09 03:52:28;;;;;;;40.50;22.08;;;1.90;99.90;;;;;;4999429;28;20112;-74
2022/01/09 03:54:55;;;;;;;38.88;20.50;;;1.90;99.90;;;;;;5013979;28;20057;-75
2022/01/09 03:57:21;;;;;;;41.45;20.88;;;1.90;99.90;;;;;;5013456;28;20026;-74
2022/01/09 03:59:46;;;;;;;40.38;20.52;;;2.00;99.90;;;;;;5013501;28;20022;-74
2022/01/09 04:02:12;;;;;;;41.17;20.08;;;2.00;99.90;;;;;;5013703;28;20030;-75
2022/01/09 04:04:38;;;;;;;36.10;21.20;;;2.00;99.90;;;;;;5011863;28;20038;-75
2022/01/09 04:07:04;;;;;;;34.08;19.10;;;2.00;99.90;;;;;;5013486;28;20076;-75
2022/01/09 04:09:39;;;;;;;44.83;20.23;;;2.00;99.90;;;;;;5009810;28;20069;-74
2022/01/09 04:12:08;;;;;;;35.08;19.65;;;2.00;99.90;;;;;;5007327;28;20509;-74
2022/01/09 04:14:34;;;;;;;40.75;21.35;;;2.00;99.90;;;;;;4993597;28;20018;-74
2022/01/09 04:17:01;;;;;;;39.08;19.80;;;2.00;99.90;;;;;;4993667;28;20030;-75
2022/01/09 04:19:26;;;;;;;33.88;17.92;;;2.00;99.90;;;;;;5010265;28;20550;-75
2022/01/09 04:21:52;;;;;;;36.72;19.85;;;2.00;99.90;;;;;;5013521;28;20120;-75
2022/01/09 04:24:17;;;;;;;45.08;22.25;;;2.00;99.90;;;;;;5012990;28;20030;-74
2022/01/09 04:26:43;;;;;;;35.47;19.92;;;2.00;99.90;;;;;;5013206;28;20474;-75
2022/01/09 04:29:08;;;;;;;33.60;17.88;;;2.00;99.90;;;;;;5013390;28;20034;-75
2022/01/09 04:31:34;;;;;;;32.15;19.05;;;2.00;99.90;;;;;;5013146;28;20029;-75
2022/01/09 04:34:00;;;;;;;33.08;19.40;;;2.00;99.90;;;;;;5013181;28;20026;-74
2022/01/09 04:36:25;;;;;;;29.50;19.85;;;2.00;99.90;;;;;;5013032;28;20049;-75
2022/01/09 04:38:52;;;;;;;32.60;19.33;;;2.00;99.90;;;;;;5013669;28;20021;-74
2022/01/09 04:41:17;;;;;;;33.95;17.92;;;2.00;99.90;;;;;;5011176;28;20022;-74
2022/01/09 04:43:45;;;;;;;31.08;18.13;;;2.00;99.90;;;;;;4999838;28;20034;-75
2022/01/09 04:46:13;;;;;;;30.45;17.05;;;2.10;99.90;;;;;;4992186;28;20027;-75
2022/01/09 04:48:38;;;;;;;29.75;17.95;;;2.00;99.90;;;;;;4996164;28;20027;-74
2022/01/09 04:51:05;;;;;;;32.70;18.60;;;2.00;99.90;;;;;;4997495;28;20396;-75
2022/01/09 04:53:30;;;;;;;41.08;19.65;;;2.00;99.90;;;;;;5011632;28;20026;-75
2022/01/09 04:55:56;;;;;;;28.27;18.50;;;2.00;99.90;;;;;;5011683;28;20071;-75
2022/01/09 04:58:22;;;;;;;33.15;18.42;;;2.00;99.90;;;;;;5008297;28;20062;-75
2022/01/09 05:00:47;;;;;;;38.05;20.13;;;2.00;99.90;;;;;;4993283;28;20101;-75
2022/01/09 05:03:14;;;;;;;30.92;18.35;;;2.00;99.90;;;;;;4993431;28;20026;-75
2022/01/09 05:05:40;;;;;;;35.25;18.67;;;2.10;99.90;;;;;;4998805;28;20076;-74
2022/01/09 05:08:06;;;;;;;39.17;19.02;;;2.00;99.90;;;;;;5016405;28;20104;-75
2022/01/09 05:10:31;;;;;;;39.20;18.90;;;2.00;99.90;;;;;;5015000;28;20033;-75
2022/01/09 05:12:57;;;;;;;30.00;19.52;;;2.00;99.90;;;;;;5001068;28;20033;-74
2022/01/09 05:15:23;;;;;;;40.58;21.00;;;2.00;99.90;;;;;;4996697;28;20031;-75
2022/01/09 05:17:53;;;;;;;30.80;18.63;;;2.10;99.90;;;;;;4998316;28;20106;-74
2022/01/09 05:20:18;;;;;;;32.58;17.85;;;2.10;99.90;;;;;;5014957;28;20080;-75
2022/01/09 05:22:44;;;;;;;39.35;20.23;;;2.00;99.90;;;;;;5016701;28;20029;-75
2022/01/09 05:25:10;;;;;;;33.28;19.85;;;2.00;99.90;;;;;;5015921;28;20111;-75
2022/01/09 05:27:36;;;;;;;32.38;20.60;;;2.10;99.90;;;;;;5016143;28;20481;-75
2022/01/09 05:30:04;;;;;;;34.15;20.05;;;2.10;99.90;;;;;;5015944;28;20439;-75
2022/01/09 05:32:29;;;;;;;38.92;19.98;;;2.10;99.90;;;;;;5015959;28;20397;-75
2022/01/09 05:34:55;;;;;;;34.53;20.00;;;2.10;99.90;;;;;;5015854;28;20029;-75
2022/01/09 05:37:20;;;;;;;34.67;20.67;;;2.10;99.90;;;;;;5015887;28;20030;-75
2022/01/09 05:39:46;;;;;;;35.65;20.65;;;2.10;99.90;;;;;;5014539;28;20025;-75
2022/01/09 05:42:13;;;;;;;38.25;21.58;;;2.10;99.90;;;;;;5013613;28;20045;-74
2022/01/09 05:44:39;;;;;;;38.17;20.25;;;2.20;99.90;;;;;;5015730;28;20057;-74
2022/01/09 05:47:05;;;;;;;34.58;20.42;;;2.10;99.90;;;;;;5016012;28;20068;-75
2022/01/09 05:49:31;;;;;;;37.55;22.13;;;2.20;99.90;;;;;;4997709;28;20030;-74
2022/01/09 05:51:56;;;;;;;34.05;20.33;;;2.20;99.90;;;;;;5011982;28;20385;-74
2022/01/09 05:54:22;;;;;;;27.88;18.73;;;2.20;99.90;;;;;;5015517;28;20398;-75
2022/01/09 05:56:48;;;;;;;40.80;20.73;;;2.20;99.90;;;;;;5009703;28;20019;-74
2022/01/09 05:59:14;;;;;;;37.90;21.15;;;2.20;99.90;;;;;;4998279;28;20128;-74
2022/01/09 06:01:40;;;;;;;34.90;19.90;;;2.20;99.90;;;;;;5006614;28;20470;-75
2022/01/09 06:04:05;;;;;;;34.72;21.23;;;2.20;99.90;;;;;;5015321;28;20026;-75
2022/01/09 06:06:32;;;;;;;34.67;20.75;;;2.20;99.90;;;;;;5010251;28;20038;-74
2022/01/09 06:08:58;;;;;;;36.90;19.95;;;2.20;99.90;;;;;;4995638;28;20026;-75
2022/01/09 06:11:23;;;;;;;36.25;20.15;;;2.20;99.90;;;;;;4994854;28;20383;-74
2022/01/09 06:13:49;;;;;;;33.22;21.73;;;2.20;99.90;;;;;;5015102;28;20101;-75
2022/01/09 06:16:14;;;;;;;40.70;22.23;;;2.20;99.90;;;;;;5014396;28;20038;-75
2022/01/09 06:18:40;;;;;;;36.25;21.08;;;2.30;99.90;;;;;;5012466;28;20022;-74
2022/01/09 06:21:05;;;;;;;33.10;19.73;;;2.30;99.90;;;;;;4995491;28;20030;-75
2022/01/09 06:23:31;;;;;;;41.10;21.13;;;2.30;99.90;;;;;;5021083;23;20042;-75
2022/01/09 06:25:57;;;;;;;33.20;20.15;;;2.20;99.90;;;;;;5015268;28;20097;-75
2022/01/09 06:28:23;;;;;;;29.95;22.10;;;2.30;99.90;;;;;;5013562;28;20034;-75
2022/01/09 06:30:49;;;;;;;39.67;21.60;;;2.30;99.90;;;;;;5012649;28;20022;-75
2022/01/09 06:33:14;;;;;;;38.35;22.38;;;2.30;99.90;;;;;;5013729;28;20026;-75
2022/01/09 06:35:40;;;;;;;32.83;20.83;;;2.30;99.90;;;;;;5012318;28;20041;-75
2022/01/09 06:38:07;;;;;;;31.75;20.35;;;2.30;99.90;;;;;;4995324;28;20022;-75
2022/01/09 06:40:33;;;;;;;34.88;21.98;;;2.30;99.90;;;;;;4994160;28;20026;-75
2022/01/09 06:42:59;;;;;;;33.47;22.35;;;2.30;99.90;;;;;;5006372;28;20375;-75
2022/01/09 06:45:26;;;;;;;30.10;20.80;;;2.30;99.90;;;;;;4995592;28;20084;-75
2022/01/09 06:47:56;;;;;;;35.20;21.75;;;2.30;99.90;;;;;;4997343;28;20040;-75
2022/01/09 06:50:23;;;;;;;39.95;23.42;;;2.30;99.90;;;;;;4995065;28;20088;-75
2022/01/09 06:52:48;;;;;;;36.88;21.90;;;2.20;99.90;;;;;;4993942;28;20023;-75
2022/01/09 06:55:14;;;;;;;41.17;21.08;;;2.20;99.90;;;;;;5004799;28;20026;-75
2022/01/09 06:57:40;;;;;;;35.38;21.00;;;2.20;99.90;;;;;;5000304;28;20170;-75
2022/01/09 07:00:08;;;;;;;30.65;21.20;;;2.20;99.90;;;;;;5014536;28;20030;-75
2022/01/09 07:02:34;;;;;;;34.05;22.00;;;2.20;99.90;;;;;;5014724;28;20021;-75
2022/01/09 07:04:59;;;;;;;36.17;22.73;;;2.20;99.90;;;;;;4995710;28;20029;-75
2022/01/09 07:07:25;;;;;;;41.88;21.80;;;2.20;99.90;;;;;;4994813;28;20026;-75
2022/01/09 07:09:51;;;;;;;34.75;20.95;;;2.20;99.90;;;;;;5008865;28;20202;-75
2022/01/09 07:12:19;;;;;;;33.53;20.77;;;2.20;99.90;;;;;;5013256;28;20419;-75
2022/01/09 07:14:45;;;;;;;31.00;20.90;;;2.20;99.90;;;;;;4996817;28;20030;-75
2022/01/09 07:17:11;;;;;;;34.03;22.40;;;2.20;99.90;;;;;;4994728;28;20101;-75
2022/01/09 07:19:37;;;;;;;34.63;22.05;;;2.20;99.90;;;;;;5003313;28;20111;-75
2022/01/09 07:22:04;;;;;;;37.60;21.90;;;2.20;99.90;;;;;;5014283;28;20026;-75
2022/01/09 07:24:29;;;;;;;34.15;22.50;;;2.20;99.90;;;;;;5008628;28;20038;-75
2022/01/09 07:26:55;;;;;;;32.67;21.50;;;2.20;99.90;;;;;;4994188;28;20389;-75
2022/01/09 07:29:20;;;;;;;34.80;21.48;;;2.20;99.90;;;;;;5004543;28;20084;-75
2022/01/09 07:31:46;;;;;;;27.65;20.55;;;2.20;99.90;;;;;;5009629;28;20023;-75
2022/01/09 07:34:11;;;;;;;42.67;21.55;;;2.20;99.90;;;;;;4994363;28;20117;-75
2022/01/09 07:36:37;;;;;;;35.45;20.45;;;2.20;99.90;;;;;;4994184;28;20026;-75
2022/01/09 07:39:03;;;;;;;34.88;21.90;;;2.10;99.90;;;;;;5011545;28;20429;-75
2022/01/09 07:41:28;;;;;;;32.17;21.67;;;2.20;99.90;;;;;;5013735;28;20029;-75
2022/01/09 07:43:54;;;;;;;30.60;21.02;;;2.20;99.90;;;;;;5001417;28;20030;-75
2022/01/09 07:46:19;;;;;;;32.03;21.63;;;2.10;99.90;;;;;;5006251;28;20072;-75
2022/01/09 07:48:45;;;;;;;29.90;20.42;;;2.20;99.90;;;;;;5014133;28;20104;-75
2022/01/09 07:51:11;;;;;;;35.58;21.30;;;2.20;99.90;;;;;;5013687;28;20094;-75
2022/01/09 07:53:36;;;;;;;31.25;20.92;;;2.10;99.90;;;;;;5011470;28;20497;-75
2022/01/09 07:56:02;;;;;;;32.08;21.23;;;2.10;99.90;;;;;;5010481;28;20153;-75
2022/01/09 07:58:28;;;;;;;32.22;20.77;;;2.10;99.90;;;;;;4999424;28;20029;-75
2022/01/09 08:00:53;;;;;;;38.95;22.60;;;2.10;99.90;;;;;;5013330;28;20366;-75
2022/01/09 08:03:19;;;;;;;31.27;20.45;;;2.10;99.90;;;;;;5013409;28;20065;-75
2022/01/09 08:05:44;;;;;;;36.47;21.70;;;2.10;99.90;;;;;;4995264;28;20474;-75
2022/01/09 08:08:10;;;;;;;35.65;21.17;;;2.10;99.90;;;;;;4994015;28;20041;-75
2022/01/09 08:10:36;;;;;;;33.50;21.38;;;2.10;99.90;;;;;;4994233;28;20518;-75
2022/01/09 08:13:01;;;;;;;32.25;20.38;;;2.10;99.90;;;;;;4994848;28;20101;-75
2022/01/09 08:15:28;;;;;;;34.80;22.05;;;2.10;99.90;;;;;;5013228;28;20392;-75
2022/01/09 08:17:54;;;;;;;35.10;22.00;;;2.10;99.90;;;;;;5013809;28;20026;-75
2022/01/09 08:20:20;;;;;;;30.00;20.30;;;2.10;99.90;;;;;;5000081;28;20022;-75
2022/01/09 08:22:46;;;;;;;26.25;19.42;;;2.00;99.90;;;;;;4993893;28;20026;-75
2022/01/09 08:25:17;;;;;;;33.88;21.88;;;2.10;99.90;;;;;;4993270;28;20133;-75
2022/01/09 08:27:44;;;;;;;28.83;20.20;;;2.00;99.90;;;;;;4992272;28;20030;-74
2022/01/09 08:30:11;;;;;;;28.75;20.50;;;2.00;99.90;;;;;;4992207;28;20053;-75
2022/01/09 08:32:37;;;;;;;32.28;20.52;;;2.00;99.90;;;;;;4993553;28;20505;-74
2022/01/09 08:35:03;;;;;;;29.33;19.65;;;2.00;99.90;;;;;;4992176;28;20529;-75
2022/01/09 08:37:29;;;;;;;28.23;19.40;;;2.00;99.90;;;;;;4993344;28;20058;-75
2022/01/09 08:39:55;;;;;;;31.63;19.73;;;2.00;99.90;;;;;;4996703;28;20030;-75
2022/01/09 08:42:20;;;;;;;29.02;19.60;;;2.10;99.90;;;;;;4997053;28;20069;-75
2022/01/09 08:44:46;;;;;;;32.03;20.30;;;2.00;99.90;;;;;;5009453;28;20026;-75
2022/01/09 08:47:12;;;;;;;32.85;21.17;;;2.10;99.90;;;;;;5012258;28;20436;-75
2022/01/09 08:49:37;;;;;;;30.48;20.60;;;2.10;99.90;;;;;;5016696;28;20033;-75
2022/01/09 08:52:04;;;;;;;35.42;20.75;;;2.10;99.90;;;;;;5016648;28;20030;-75
2022/01/09 08:54:30;;;;;;;33.35;21.58;;;2.10;99.90;;;;;;5016615;28;20026;-75
2022/01/09 08:56:56;;;;;;;32.88;20.23;;;2.10;99.90;;;;;;5015354;28;20030;-75
2022/01/09 08:59:22;;;;;;;30.58;20.52;;;2.10;99.90;;;;;;5016598;28;20044;-75
2022/01/09 09:01:48;;;;;;;35.80;20.75;;;2.10;99.90;;;;;;5016646;28;20374;-75
2022/01/09 09:04:14;;;;;;;29.58;18.75;;;2.10;99.90;;;;;;5014274;28;20034;-75
2022/01/09 09:06:40;;;;;;;32.65;20.58;;;2.10;99.90;;;;;;5015122;28;20477;-75
2022/01/09 09:09:07;;;;;;;28.77;19.25;;;2.10;99.90;;;;;;5016076;28;20084;-75
2022/01/09 09:11:33;;;;;;;31.23;20.88;;;2.10;99.90;;;;;;5016410;28;20026;-75
2022/01/09 09:13:58;;;;;;;29.75;20.05;;;2.10;99.90;;;;;;5016347;28;20061;-75
2022/01/09 09:16:24;;;;;;;34.83;21.30;;;2.10;99.90;;;;;;5016266;28;20030;-75
2022/01/09 09:18:50;;;;;;;29.77;20.77;;;2.10;99.90;;;;;;5014576;28;20018;-75
2022/01/09 09:21:16;;;;;;;31.80;20.20;;;2.10;99.90;;;;;;5016215;28;20394;-75
2022/01/09 09:23:42;;;;;;;31.95;20.55;;;2.10;99.90;;;;;;5014126;28;20042;-75
2022/01/09 09:26:09;;;;;;;30.35;19.25;;;2.10;99.90;;;;;;5016424;28;20425;-75
2022/01/09 09:28:35;;;;;;;28.08;19.52;;;2.10;99.90;;;;;;5011464;28;20030;-75
2022/01/09 09:31:00;;;;;;;28.75;19.20;;;2.10;99.90;;;;;;4996361;28;20025;-75
2022/01/09 09:33:26;;;;;;;29.25;19.40;;;2.20;99.90;;;;;;4996350;28;20030;-75
2022/01/09 09:35:52;;;;;;;31.77;20.08;;;2.20;99.90;;;;;;4996506;28;20022;-75
2022/01/09 09:38:18;;;;;;;28.42;19.80;;;2.20;99.90;;;;;;4996864;28;20378;-75
2022/01/09 09:40:43;;;;;;;35.38;20.45;;;2.20;99.90;;;;;;5011883;28;20022;-75
2022/01/09 09:43:09;;;;;;;31.88;18.95;;;2.20;99.90;;;;;;5015725;28;20030;-75
2022/01/09 09:45:34;;;;;;;31.95;20.23;;;2.10;99.90;;;;;;5015648;28;20104;-75
2022/01/09 09:48:00;;;;;;;30.40;19.08;;;2.10;99.90;;;;;;5015677;28;20030;-75
2022/01/09 09:50:26;;;;;;;30.20;19.50;;;2.20;99.90;;;;;;5015430;28;20034;-75
2022/01/09 09:52:51;;;;;;;30.83;20.05;;;2.20;99.90;;;;;;5015683;28;20033;-75
2022/01/09 09:55:18;;;;;;;30.25;19.48;;;2.30;99.90;;;;;;5005510;28;20026;-75
2022/01/09 09:57:45;;;;;;;30.90;19.75;;;2.20;99.90;;;;;;4995900;28;20470;-75
2022/01/09 10:00:16;;;;;;;30.73;19.65;;;2.30;99.90;;;;;;4997246;28;20026;-75
2022/01/09 10:02:53;;;;;;;33.22;20.92;;;2.30;99.90;;;;;;4994636;28;20030;-75
2022/01/09 10:05:22;;;;;;;34.92;20.95;;;2.40;99.90;;;;;;5008738;28;20029;-75
2022/01/09 10:07:47;;;;;;;32.90;19.70;;;2.40;99.90;;;;;;5015324;28;20104;-74
2022/01/09 10:10:16;;;;;;;35.03;23.50;;;2.50;99.90;;;;;;5015218;28;20113;-75
2022/01/09 10:12:43;;;;;;;34.17;20.60;;;2.50;99.90;;;;;;5003094;28;20041;-75
2022/01/09 10:15:12;;;;;;;37.15;21.50;;;2.40;99.90;;;;;;4995750;28;20030;-74
2022/01/09 10:17:43;;;;;;;35.65;23.58;;;2.40;99.90;;;;;;4995779;28;20105;-74
2022/01/09 10:20:22;;;;;;;38.17;23.85;;;2.40;99.90;;;;;;4995773;28;20367;-74
2022/01/09 10:22:53;;;;;;;37.22;21.77;;;2.40;99.90;;;;;;4995869;28;20482;-74
2022/01/09 10:25:21;;;;;;;38.70;23.60;;;2.50;99.90;;;;;;4995379;28;20410;-75
2022/01/09 10:27:54;;;;;;;37.05;22.80;;;2.60;99.90;;;;;;4995463;28;20102;-75
2022/01/09 10:30:22;;;;;;;37.35;22.67;;;2.60;99.90;;;;;;4995862;28;20050;-75
2022/01/09 10:32:54;;;;;;;40.13;23.13;;;2.60;99.90;;;;;;4994488;28;20390;-75
2022/01/09 10:35:20;;;;;;;33.92;21.20;;;2.70;99.90;;;;;;4995385;28;20104;-75
2022/01/09 10:37:48;;;;;;;36.67;22.13;;;2.70;99.90;;;;;;4995202;28;20478;-74
2022/01/09 10:40:28;;;;;;;36.05;21.08;;;2.70;99.90;;;;;;4995748;28;20111;-74
2022/01/09 10:43:05;;;;;;;35.28;20.65;;;2.70;99.90;;;;;;4995375;28;20509;-74
2022/01/09 10:45:31;;;;;;;31.33;20.27;;;2.60;99.90;;;;;;4995065;28;20030;-75
2022/01/09 10:48:24;;;;;;;34.47;20.38;;;2.60;99.90;;;;;;5011862;28;20478;-74
2022/01/09 10:50:51;;;;;;;26.02;17.73;;;2.60;99.90;;;;;;5012780;28;20034;-74
2022/01/09 10:53:20;;;;;;;29.52;19.73;;;2.60;99.90;;;;;;5014644;28;20101;-74
2022/01/09 10:56:03;;;;;;;28.63;17.67;;;2.60;99.90;;;;;;5014490;28;20477;-75
2022/01/09 10:58:30;;;;;;;23.52;16.92;;;2.70;99.90;;;;;;5014758;28;20030;-75
2022/01/09 11:01:26;;;;;;;21.33;15.85;;;2.70;99.90;;;;;;5013978;28;20030;-75
2022/01/09 11:03:58;;;;;;;21.52;15.70;;;2.70;99.90;;;;;;5014562;28;20037;-74
2022/01/09 11:06:26;;;;;;;25.15;17.15;;;2.80;99.90;;;;;;5014388;28;20037;-75
2022/01/09 11:08:53;;;;;;;23.83;16.52;;;2.80;99.90;;;;;;5014758;28;20389;-75
2022/01/09 11:13:54;;;;;;;25.05;17.20;;;2.80;99.90;;;;;;5014817;28;20102;-75
2022/01/09 11:16:37;;;;;;;19.58;15.57;;;2.80;99.90;;;;;;5013927;28;20033;-75
2022/01/09 11:19:06;;;;;;;24.88;16.35;;;2.80;99.90;;;;;;4994516;28;20022;-75
2022/01/09 11:21:32;;;;;;;20.90;16.13;;;2.80;99.90;;;;;;4994394;28;20022;-75
2022/01/09 11:24:12;;;;;;;20.00;15.10;;;2.80;99.90;;;;;;4994208;28;20030;-75
2022/01/09 11:26:48;;;;;;;22.17;15.38;;;2.80;99.90;;;;;;4994345;28;20057;-75
2022/01/09 11:29:19;;;;;;;22.38;15.75;;;2.80;99.90;;;;;;4994219;28;20470;-75
2022/01/09 11:32:05;;;;;;;20.75;15.48;;;2.80;99.90;;;;;;4994845;28;20038;-75
2022/01/09 11:34:55;;;;;;;20.60;15.07;;;2.90;99.90;;;;;;4986920;28;20044;-75
2022/01/09 11:37:29;;;;;;;19.92;15.63;;;2.90;99.90;;;;;;4994493;28;20467;-75
2022/01/09 11:39:55;;;;;;;20.98;14.85;;;2.80;99.90;;;;;;4994221;28;20375;-75
2022/01/09 11:42:21;;;;;;;20.45;14.45;;;2.80;99.90;;;;;;4994056;28;20030;-75
2022/01/09 11:44:53;;;;;;;19.40;15.52;;;2.80;99.90;;;;;;4993989;28;20033;-75
2022/01/09 11:47:19;;;;;;;22.35;16.30;;;2.80;99.90;;;;;;4994046;28;20019;-75
2022/01/09 11:49:54;;;;;;;21.40;15.73;;;2.80;99.90;;;;;;4994183;28;20030;-75
2022/01/09 11:52:21;;;;;;;20.13;14.95;;;2.80;99.90;;;;;;4994136;28;20101;-75
2022/01/09 11:54:51;;;;;;;21.63;15.68;;;2.70;99.90;;;;;;4994025;28;20541;-75
2022/01/09 11:57:40;;;;;;;23.73;14.90;;;2.70;99.90;;;;;;4994091;28;20030;-75
2022/01/09 12:00:08;;;;;;;23.17;17.35;;;2.80;99.90;;;;;;5009298;28;20386;-75
2022/01/09 12:02:35;;;;;;;21.13;16.17;;;2.70;99.90;;;;;;5009109;28;20128;-75
2022/01/09 12:05:08;;;;;;;22.15;16.45;;;2.70;99.90;;;;;;4993981;28;20057;-75
2022/01/09 12:07:34;;;;;;;24.25;16.63;;;2.70;99.90;;;;;;4994649;28;20022;-75
2022/01/09 12:10:22;;;;;;;22.38;15.30;;;2.70;99.90;;;;;;4992770;28;20401;-75
2022/01/09 12:12:49;;;;;;;21.38;16.38;;;2.70;99.90;;;;;;4993325;28;20117;-75
2022/01/09 12:15:36;;;;;;;22.58;17.13;;;2.60;99.90;;;;;;5003322;28;21033;-75
2022/01/09 12:18:03;;;;;;;22.60;17.42;;;2.70;99.90;;;;;;4998253;28;20089;-75
2022/01/09 12:20:37;;;;;;;26.88;17.80;;;2.70;99.90;;;;;;5002878;28;20031;-75
2022/01/09 12:23:04;;;;;;;21.13;16.02;;;2.60;99.90;;;;;;5006933;28;20034;-75
2022/01/09 12:25:33;;;;;;;23.50;17.35;;;2.60;99.90;;;;;;5085415;22;20049;-71
2022/01/09 12:28:09;;;;;;;28.70;19.27;;;2.60;99.90;;;;;;5036998;28;20389;-71
2022/01/09 12:33:25;;;;;;;25.35;17.75;;;2.60;99.90;;;;;;5017412;28;20160;-71
2022/01/09 12:36:10;;;;;;;25.15;17.90;;;2.60;99.90;;;;;;5019818;28;20022;-71
2022/01/09 12:38:48;;;;;;;24.08;18.90;;;2.60;99.90;;;;;;5037127;28;20049;-71
2022/01/09 12:41:23;;;;;;;22.27;17.05;;;2.60;99.90;;;;;;5036739;28;20021;-71